sensor_id;sensor_type;location;lat;lon;timestamp;P1;durP1;ratioP1;P2;durP2;ratioP2
57071;SDS011;42956;51.366;11.298;2024-01-30T00:01:19;25.25;;;14.18;;
57071;SDS011;42956;51.366;11.298;2024-01-30T00:03:49;23.42;;;14.43;;
57071;SDS011;42956;51.366;11.298;2024-01-30T00:06:19;18.73;;;13.60;;
57071;SDS011;42956;51.366;11.298;2024-01-30T00:08:49;24.42;;;14.32;;
57071;SDS011;42956;51.366;11.298;2024-01-30T00:11:20;24.73;;;14.80;;
57071;SDS011;42956;51.366;11.298;2024-01-30T00:13:52;22.13;;;14.20;;
57071;SDS011;42956;51.366;11.298;2024-01-30T00:16:26;24.27;;;15.02;;
57071;SDS011;42956;51.366;11.298;2024-01-30T00:18:56;29.38;;;15.00;;
57071;SDS011;42956;51.366;11.298;2024-01-30T00:21:26;25.08;;;15.82;;
57071;SDS011;42956;51.366;11.298;2024-01-30T00:23:56;25.00;;;16.10;;
57071;SDS011;42956;51.366;11.298;2024-01-30T00:26:26;25.27;;;14.57;;
57071;SDS011;42956;51.366;11.298;2024-01-30T00:28:56;22.30;;;14.35;;
57071;SDS011;42956;51.366;11.298;2024-01-30T00:31:28;24.08;;;14.18;;
57071;SDS011;42956;51.366;11.298;2024-01-30T00:33:58;26.05;;;15.98;;
57071;SDS011;42956;51.366;11.298;2024-01-30T00:36:28;21.58;;;15.57;;
57071;SDS011;42956;51.366;11.298;2024-01-30T00:38:58;22.33;;;14.75;;
57071;SDS011;42956;51.366;11.298;2024-01-30T00:41:28;27.42;;;16.73;;
57071;SDS011;42956;51.366;11.298;2024-01-30T00:43:58;24.73;;;15.40;;
57071;SDS011;42956;51.366;11.298;2024-01-30T00:46:31;25.33;;;15.00;;
57071;SDS011;42956;51.366;11.298;2024-01-30T00:49:01;21.27;;;13.60;;
57071;SDS011;42956;51.366;11.298;2024-01-30T00:51:31;18.52;;;12.63;;
57071;SDS011;42956;51.366;11.298;2024-01-30T00:54:01;23.23;;;13.63;;
57071;SDS011;42956;51.366;11.298;2024-01-30T00:56:30;19.20;;;12.35;;
57071;SDS011;42956;51.366;11.298;2024-01-30T00:59:01;23.48;;;13.43;;
57071;SDS011;42956;51.366;11.298;2024-01-30T01:01:33;19.42;;;12.60;;
57071;SDS011;42956;51.366;11.298;2024-01-30T01:04:03;17.35;;;12.25;;
57071;SDS011;42956;51.366;11.298;2024-01-30T01:06:34;18.92;;;11.60;;
57071;SDS011;42956;51.366;11.298;2024-01-30T01:09:04;19.90;;;12.63;;
57071;SDS011;42956;51.366;11.298;2024-01-30T01:11:34;18.67;;;12.48;;
57071;SDS011;42956;51.366;11.298;2024-01-30T01:14:04;27.92;;;13.32;;
57071;SDS011;42956;51.366;11.298;2024-01-30T01:16:37;22.20;;;13.02;;
57071;SDS011;42956;51.366;11.298;2024-01-30T01:19:07;21.02;;;13.93;;
57071;SDS011;42956;51.366;11.298;2024-01-30T01:21:37;18.13;;;12.75;;
57071;SDS011;42956;51.366;11.298;2024-01-30T01:24:07;19.70;;;12.60;;
57071;SDS011;42956;51.366;11.298;2024-01-30T01:26:37;21.77;;;13.50;;
57071;SDS011;42956;51.366;11.298;2024-01-30T01:29:07;18.75;;;12.02;;
57071;SDS011;42956;51.366;11.298;2024-01-30T01:31:41;22.73;;;12.80;;
57071;SDS011;42956;51.366;11.298;2024-01-30T01:34:13;18.88;;;13.07;;
57071;SDS011;42956;51.366;11.298;2024-01-30T01:36:43;19.15;;;12.70;;
57071;SDS011;42956;51.366;11.298;2024-01-30T01:39:13;21.85;;;12.82;;
57071;SDS011;42956;51.366;11.298;2024-01-30T01:41:43;24.48;;;13.75;;
57071;SDS011;42956;51.366;11.298;2024-01-30T01:44:13;21.60;;;12.55;;
57071;SDS011;42956;51.366;11.298;2024-01-30T01:46:45;21.17;;;13.07;;
57071;SDS011;42956;51.366;11.298;2024-01-30T01:49:15;23.88;;;15.05;;
57071;SDS011;42956;51.366;11.298;2024-01-30T01:51:46;27.60;;;13.85;;
57071;SDS011;42956;51.366;11.298;2024-01-30T01:54:17;18.73;;;13.45;;
57071;SDS011;42956;51.366;11.298;2024-01-30T01:56:47;21.13;;;14.52;;
57071;SDS011;42956;51.366;11.298;2024-01-30T01:59:17;19.63;;;13.50;;
57071;SDS011;42956;51.366;11.298;2024-01-30T02:01:49;23.67;;;13.50;;
57071;SDS011;42956;51.366;11.298;2024-01-30T02:04:20;19.83;;;13.15;;
57071;SDS011;42956;51.366;11.298;2024-01-30T02:06:50;28.52;;;14.10;;
57071;SDS011;42956;51.366;11.298;2024-01-30T02:09:21;22.50;;;13.73;;
57071;SDS011;42956;51.366;11.298;2024-01-30T02:11:51;25.38;;;14.10;;
57071;SDS011;42956;51.366;11.298;2024-01-30T02:14:21;22.33;;;13.70;;
57071;SDS011;42956;51.366;11.298;2024-01-30T02:16:58;19.77;;;13.13;;
57071;SDS011;42956;51.366;11.298;2024-01-30T02:19:28;21.33;;;13.05;;
57071;SDS011;42956;51.366;11.298;2024-01-30T02:22:00;16.95;;;11.60;;
57071;SDS011;42956;51.366;11.298;2024-01-30T02:24:30;21.50;;;12.82;;
57071;SDS011;42956;51.366;11.298;2024-01-30T02:27:00;21.67;;;12.93;;
57071;SDS011;42956;51.366;11.298;2024-01-30T02:29:30;20.10;;;11.98;;
57071;SDS011;42956;51.366;11.298;2024-01-30T02:32:00;20.77;;;13.38;;
57071;SDS011;42956;51.366;11.298;2024-01-30T02:34:30;18.10;;;11.55;;
57071;SDS011;42956;51.366;11.298;2024-01-30T02:37:03;21.05;;;12.27;;
57071;SDS011;42956;51.366;11.298;2024-01-30T02:39:33;22.40;;;13.45;;
57071;SDS011;42956;51.366;11.298;2024-01-30T02:42:03;18.17;;;12.45;;
57071;SDS011;42956;51.366;11.298;2024-01-30T02:44:33;19.90;;;12.60;;
57071;SDS011;42956;51.366;11.298;2024-01-30T02:47:03;20.08;;;12.18;;
57071;SDS011;42956;51.366;11.298;2024-01-30T02:49:33;20.08;;;12.05;;
57071;SDS011;42956;51.366;11.298;2024-01-30T02:52:06;18.67;;;12.75;;
57071;SDS011;42956;51.366;11.298;2024-01-30T02:54:36;23.58;;;12.55;;
57071;SDS011;42956;51.366;11.298;2024-01-30T02:57:06;20.17;;;13.27;;
57071;SDS011;42956;51.366;11.298;2024-01-30T02:59:36;19.17;;;12.55;;
57071;SDS011;42956;51.366;11.298;2024-01-30T03:02:06;17.95;;;12.15;;
57071;SDS011;42956;51.366;11.298;2024-01-30T03:04:36;25.95;;;12.93;;
57071;SDS011;42956;51.366;11.298;2024-01-30T03:07:09;15.98;;;11.88;;
57071;SDS011;42956;51.366;11.298;2024-01-30T03:09:40;17.42;;;11.93;;
57071;SDS011;42956;51.366;11.298;2024-01-30T03:12:11;23.70;;;13.32;;
57071;SDS011;42956;51.366;11.298;2024-01-30T03:14:40;23.35;;;14.48;;
57071;SDS011;42956;51.366;11.298;2024-01-30T03:17:10;21.25;;;14.57;;
57071;SDS011;42956;51.366;11.298;2024-01-30T03:19:40;24.13;;;13.82;;
57071;SDS011;42956;51.366;11.298;2024-01-30T03:22:13;23.23;;;14.57;;
57071;SDS011;42956;51.366;11.298;2024-01-30T03:24:43;23.55;;;15.15;;
57071;SDS011;42956;51.366;11.298;2024-01-30T03:27:13;23.02;;;14.55;;
57071;SDS011;42956;51.366;11.298;2024-01-30T03:29:42;23.25;;;15.05;;
57071;SDS011;42956;51.366;11.298;2024-01-30T03:32:12;21.20;;;14.15;;
57071;SDS011;42956;51.366;11.298;2024-01-30T03:34:42;23.45;;;15.55;;
57071;SDS011;42956;51.366;11.298;2024-01-30T03:37:15;24.98;;;15.25;;
57071;SDS011;42956;51.366;11.298;2024-01-30T03:39:45;28.42;;;15.98;;
57071;SDS011;42956;51.366;11.298;2024-01-30T03:42:15;23.10;;;14.57;;
57071;SDS011;42956;51.366;11.298;2024-01-30T03:44:45;24.55;;;15.02;;
57071;SDS011;42956;51.366;11.298;2024-01-30T03:47:14;22.70;;;14.63;;
57071;SDS011;42956;51.366;11.298;2024-01-30T03:49:44;20.92;;;13.98;;
57071;SDS011;42956;51.366;11.298;2024-01-30T03:52:17;21.75;;;12.93;;
57071;SDS011;42956;51.366;11.298;2024-01-30T03:54:47;19.70;;;14.07;;
57071;SDS011;42956;51.366;11.298;2024-01-30T03:57:17;20.90;;;12.77;;
57071;SDS011;42956;51.366;11.298;2024-01-30T03:59:47;19.30;;;13.27;;
57071;SDS011;42956;51.366;11.298;2024-01-30T04:02:17;20.05;;;12.98;;
57071;SDS011;42956;51.366;11.298;2024-01-30T04:04:47;21.23;;;13.43;;
57071;SDS011;42956;51.366;11.298;2024-01-30T04:07:20;21.88;;;13.23;;
57071;SDS011;42956;51.366;11.298;2024-01-30T04:12:20;20.38;;;13.10;;
57071;SDS011;42956;51.366;11.298;2024-01-30T04:14:50;21.67;;;14.23;;
57071;SDS011;42956;51.366;11.298;2024-01-30T04:17:20;23.17;;;14.38;;
57071;SDS011;42956;51.366;11.298;2024-01-30T04:19:50;21.88;;;13.10;;
57071;SDS011;42956;51.366;11.298;2024-01-30T04:22:23;20.50;;;13.65;;
57071;SDS011;42956;51.366;11.298;2024-01-30T04:24:53;25.40;;;14.95;;
57071;SDS011;42956;51.366;11.298;2024-01-30T04:27:23;25.70;;;15.23;;
57071;SDS011;42956;51.366;11.298;2024-01-30T04:29:52;28.02;;;16.05;;
57071;SDS011;42956;51.366;11.298;2024-01-30T04:32:22;24.60;;;15.80;;
57071;SDS011;42956;51.366;11.298;2024-01-30T04:34:52;30.50;;;16.38;;
57071;SDS011;42956;51.366;11.298;2024-01-30T04:37:25;25.73;;;15.70;;
57071;SDS011;42956;51.366;11.298;2024-01-30T04:39:55;29.25;;;16.25;;
57071;SDS011;42956;51.366;11.298;2024-01-30T04:42:25;26.48;;;14.93;;
57071;SDS011;42956;51.366;11.298;2024-01-30T04:44:55;23.25;;;13.88;;
57071;SDS011;42956;51.366;11.298;2024-01-30T04:47:24;21.33;;;14.43;;
57071;SDS011;42956;51.366;11.298;2024-01-30T04:49:54;24.10;;;14.25;;
57071;SDS011;42956;51.366;11.298;2024-01-30T04:52:27;20.80;;;14.50;;
57071;SDS011;42956;51.366;11.298;2024-01-30T04:54:57;22.00;;;13.48;;
57071;SDS011;42956;51.366;11.298;2024-01-30T04:57:27;26.40;;;14.48;;
57071;SDS011;42956;51.366;11.298;2024-01-30T04:59:58;19.50;;;13.27;;
57071;SDS011;42956;51.366;11.298;2024-01-30T05:02:28;20.65;;;12.75;;
57071;SDS011;42956;51.366;11.298;2024-01-30T05:04:58;22.30;;;13.30;;
57071;SDS011;42956;51.366;11.298;2024-01-30T05:07:31;21.38;;;14.05;;
57071;SDS011;42956;51.366;11.298;2024-01-30T05:12:32;20.60;;;12.55;;
57071;SDS011;42956;51.366;11.298;2024-01-30T05:15:02;20.13;;;12.70;;
57071;SDS011;42956;51.366;11.298;2024-01-30T05:17:32;24.30;;;13.82;;
57071;SDS011;42956;51.366;11.298;2024-01-30T05:20:03;25.10;;;13.45;;
57071;SDS011;42956;51.366;11.298;2024-01-30T05:22:35;24.00;;;12.93;;
57071;SDS011;42956;51.366;11.298;2024-01-30T05:25:12;20.27;;;13.35;;
57071;SDS011;42956;51.366;11.298;2024-01-30T05:27:43;26.33;;;14.30;;
57071;SDS011;42956;51.366;11.298;2024-01-30T05:30:13;20.10;;;13.77;;
57071;SDS011;42956;51.366;11.298;2024-01-30T05:32:43;21.55;;;13.98;;
57071;SDS011;42956;51.366;11.298;2024-01-30T05:35:13;23.42;;;14.13;;
57071;SDS011;42956;51.366;11.298;2024-01-30T05:37:45;23.52;;;15.02;;
57071;SDS011;42956;51.366;11.298;2024-01-30T05:40:15;19.30;;;13.63;;
57071;SDS011;42956;51.366;11.298;2024-01-30T05:42:45;19.17;;;13.70;;
57071;SDS011;42956;51.366;11.298;2024-01-30T05:45:15;22.50;;;13.45;;
57071;SDS011;42956;51.366;11.298;2024-01-30T05:47:45;21.65;;;13.98;;
57071;SDS011;42956;51.366;11.298;2024-01-30T05:50:15;23.88;;;14.10;;
57071;SDS011;42956;51.366;11.298;2024-01-30T05:52:47;21.30;;;14.30;;
57071;SDS011;42956;51.366;11.298;2024-01-30T05:55:17;22.33;;;13.68;;
57071;SDS011;42956;51.366;11.298;2024-01-30T05:57:47;22.70;;;13.85;;
57071;SDS011;42956;51.366;11.298;2024-01-30T06:00:18;18.60;;;13.30;;
57071;SDS011;42956;51.366;11.298;2024-01-30T06:02:48;19.88;;;13.32;;
57071;SDS011;42956;51.366;11.298;2024-01-30T06:05:18;23.40;;;14.10;;
57071;SDS011;42956;51.366;11.298;2024-01-30T06:07:50;25.08;;;15.02;;
57071;SDS011;42956;51.366;11.298;2024-01-30T06:10:20;17.55;;;13.60;;
57071;SDS011;42956;51.366;11.298;2024-01-30T06:12:50;24.42;;;13.93;;
57071;SDS011;42956;51.366;11.298;2024-01-30T06:15:20;22.15;;;13.43;;
57071;SDS011;42956;51.366;11.298;2024-01-30T06:17:50;24.10;;;15.13;;
57071;SDS011;42956;51.366;11.298;2024-01-30T06:20:20;21.83;;;13.75;;
57071;SDS011;42956;51.366;11.298;2024-01-30T06:22:52;21.52;;;14.30;;
57071;SDS011;42956;51.366;11.298;2024-01-30T06:25:22;19.98;;;14.45;;
57071;SDS011;42956;51.366;11.298;2024-01-30T06:27:52;22.25;;;14.90;;
57071;SDS011;42956;51.366;11.298;2024-01-30T06:30:22;21.77;;;15.35;;
57071;SDS011;42956;51.366;11.298;2024-01-30T06:32:52;21.73;;;13.85;;
57071;SDS011;42956;51.366;11.298;2024-01-30T06:35:22;30.42;;;18.25;;
57071;SDS011;42956;51.366;11.298;2024-01-30T06:37:55;38.03;;;23.50;;
57071;SDS011;42956;51.366;11.298;2024-01-30T06:40:24;29.98;;;17.45;;
57071;SDS011;42956;51.366;11.298;2024-01-30T06:42:55;23.25;;;15.50;;
57071;SDS011;42956;51.366;11.298;2024-01-30T06:45:24;22.70;;;14.35;;
57071;SDS011;42956;51.366;11.298;2024-01-30T06:47:54;21.17;;;14.77;;
57071;SDS011;42956;51.366;11.298;2024-01-30T06:50:24;21.88;;;14.10;;
57071;SDS011;42956;51.366;11.298;2024-01-30T06:52:57;26.67;;;16.10;;
57071;SDS011;42956;51.366;11.298;2024-01-30T06:55:27;23.17;;;15.60;;
57071;SDS011;42956;51.366;11.298;2024-01-30T06:57:57;23.20;;;14.40;;
57071;SDS011;42956;51.366;11.298;2024-01-30T07:00:27;23.75;;;14.65;;
57071;SDS011;42956;51.366;11.298;2024-01-30T07:02:57;19.85;;;13.98;;
57071;SDS011;42956;51.366;11.298;2024-01-30T07:05:27;20.13;;;13.70;;
57071;SDS011;42956;51.366;11.298;2024-01-30T07:07:59;24.40;;;15.35;;
57071;SDS011;42956;51.366;11.298;2024-01-30T07:10:29;20.80;;;14.23;;
57071;SDS011;42956;51.366;11.298;2024-01-30T07:13:00;25.83;;;15.45;;
57071;SDS011;42956;51.366;11.298;2024-01-30T07:15:31;27.52;;;16.77;;
57071;SDS011;42956;51.366;11.298;2024-01-30T07:18:01;22.45;;;14.05;;
57071;SDS011;42956;51.366;11.298;2024-01-30T07:20:31;24.20;;;15.13;;
57071;SDS011;42956;51.366;11.298;2024-01-30T07:23:05;20.33;;;13.48;;
57071;SDS011;42956;51.366;11.298;2024-01-30T07:25:35;21.52;;;14.63;;
57071;SDS011;42956;51.366;11.298;2024-01-30T07:28:05;32.97;;;16.48;;
57071;SDS011;42956;51.366;11.298;2024-01-30T07:30:36;25.65;;;16.42;;
57071;SDS011;42956;51.366;11.298;2024-01-30T07:33:09;27.90;;;18.10;;
57071;SDS011;42956;51.366;11.298;2024-01-30T07:35:39;32.72;;;17.63;;
57071;SDS011;42956;51.366;11.298;2024-01-30T07:38:11;31.98;;;18.20;;
57071;SDS011;42956;51.366;11.298;2024-01-30T07:40:41;31.67;;;17.95;;
57071;SDS011;42956;51.366;11.298;2024-01-30T07:43:11;29.67;;;19.15;;
57071;SDS011;42956;51.366;11.298;2024-01-30T07:45:41;32.30;;;17.98;;
57071;SDS011;42956;51.366;11.298;2024-01-30T07:48:11;30.75;;;18.63;;
57071;SDS011;42956;51.366;11.298;2024-01-30T07:50:41;32.15;;;18.35;;
57071;SDS011;42956;51.366;11.298;2024-01-30T07:53:17;31.98;;;19.15;;
57071;SDS011;42956;51.366;11.298;2024-01-30T07:55:47;27.77;;;16.35;;
57071;SDS011;42956;51.366;11.298;2024-01-30T07:58:17;22.88;;;14.20;;
57071;SDS011;42956;51.366;11.298;2024-01-30T08:00:47;19.73;;;14.68;;
57071;SDS011;42956;51.366;11.298;2024-01-30T08:03:18;21.60;;;13.70;;
57071;SDS011;42956;51.366;11.298;2024-01-30T08:05:48;20.60;;;13.07;;
57071;SDS011;42956;51.366;11.298;2024-01-30T08:08:21;26.67;;;14.85;;
57071;SDS011;42956;51.366;11.298;2024-01-30T08:13:25;20.60;;;14.07;;
57071;SDS011;42956;51.366;11.298;2024-01-30T08:15:55;20.90;;;13.52;;
57071;SDS011;42956;51.366;11.298;2024-01-30T08:18:25;23.52;;;14.38;;
57071;SDS011;42956;51.366;11.298;2024-01-30T08:20:55;19.15;;;13.30;;
57071;SDS011;42956;51.366;11.298;2024-01-30T08:23:35;26.02;;;15.20;;
57071;SDS011;42956;51.366;11.298;2024-01-30T08:26:05;23.55;;;14.63;;
57071;SDS011;42956;51.366;11.298;2024-01-30T08:28:35;24.50;;;14.10;;
57071;SDS011;42956;51.366;11.298;2024-01-30T08:31:05;26.17;;;17.17;;
57071;SDS011;42956;51.366;11.298;2024-01-30T08:33:35;27.58;;;18.88;;
57071;SDS011;42956;51.366;11.298;2024-01-30T08:39:10;34.28;;;20.25;;
57071;SDS011;42956;51.366;11.298;2024-01-30T08:41:39;27.83;;;18.75;;
57071;SDS011;42956;51.366;11.298;2024-01-30T08:44:07;38.45;;;19.60;;
57071;SDS011;42956;51.366;11.298;2024-01-30T08:46:37;27.85;;;18.55;;
57071;SDS011;42956;51.366;11.298;2024-01-30T08:49:06;25.80;;;17.52;;
57071;SDS011;42956;51.366;11.298;2024-01-30T08:51:35;29.77;;;18.52;;
57071;SDS011;42956;51.366;11.298;2024-01-30T08:54:04;23.02;;;15.70;;
57071;SDS011;42956;51.366;11.298;2024-01-30T09:01:37;27.35;;;14.68;;
57071;SDS011;42956;51.366;11.298;2024-01-30T09:04:21;23.60;;;14.05;;
57071;SDS011;42956;51.366;11.298;2024-01-30T09:06:52;23.58;;;14.48;;
57071;SDS011;42956;51.366;11.298;2024-01-30T09:09:21;24.80;;;16.73;;
57071;SDS011;42956;51.366;11.298;2024-01-30T09:11:51;28.40;;;14.98;;
57071;SDS011;42956;51.366;11.298;2024-01-30T09:14:21;22.10;;;16.83;;
57071;SDS011;42956;51.366;11.298;2024-01-30T09:16:57;23.85;;;15.70;;
57071;SDS011;42956;51.366;11.298;2024-01-30T09:19:27;21.98;;;14.65;;
57071;SDS011;42956;51.366;11.298;2024-01-30T09:21:57;22.40;;;15.50;;
57071;SDS011;42956;51.366;11.298;2024-01-30T09:24:27;20.33;;;14.45;;
57071;SDS011;42956;51.366;11.298;2024-01-30T09:26:57;23.58;;;14.90;;
57071;SDS011;42956;51.366;11.298;2024-01-30T09:29:27;24.50;;;15.35;;
57071;SDS011;42956;51.366;11.298;2024-01-30T09:31:59;23.08;;;14.68;;
57071;SDS011;42956;51.366;11.298;2024-01-30T09:34:29;28.80;;;15.18;;
57071;SDS011;42956;51.366;11.298;2024-01-30T09:36:59;24.30;;;15.32;;
57071;SDS011;42956;51.366;11.298;2024-01-30T09:39:29;25.27;;;17.23;;
57071;SDS011;42956;51.366;11.298;2024-01-30T09:42:01;21.52;;;14.20;;
57071;SDS011;42956;51.366;11.298;2024-01-30T09:44:32;23.60;;;14.68;;
57071;SDS011;42956;51.366;11.298;2024-01-30T09:47:07;21.83;;;13.43;;
57071;SDS011;42956;51.366;11.298;2024-01-30T09:52:07;22.67;;;13.27;;
57071;SDS011;42956;51.366;11.298;2024-01-30T09:54:38;18.00;;;12.50;;
57071;SDS011;42956;51.366;11.298;2024-01-30T09:57:08;21.75;;;12.75;;
57071;SDS011;42956;51.366;11.298;2024-01-30T09:59:41;17.48;;;11.02;;
57071;SDS011;42956;51.366;11.298;2024-01-30T10:02:14;20.00;;;10.87;;
57071;SDS011;42956;51.366;11.298;2024-01-30T10:04:47;18.63;;;12.35;;
57071;SDS011;42956;51.366;11.298;2024-01-30T10:07:17;18.33;;;11.63;;
57071;SDS011;42956;51.366;11.298;2024-01-30T10:09:47;18.67;;;11.30;;
57071;SDS011;42956;51.366;11.298;2024-01-30T10:12:17;17.88;;;11.82;;
57071;SDS011;42956;51.366;11.298;2024-01-30T10:14:47;19.90;;;11.70;;
57071;SDS011;42956;51.366;11.298;2024-01-30T10:17:20;18.52;;;11.88;;
57071;SDS011;42956;51.366;11.298;2024-01-30T10:19:59;22.33;;;14.18;;
57071;SDS011;42956;51.366;11.298;2024-01-30T10:22:29;17.52;;;11.82;;
57071;SDS011;42956;51.366;11.298;2024-01-30T10:24:59;19.77;;;12.65;;
57071;SDS011;42956;51.366;11.298;2024-01-30T10:27:32;17.58;;;12.40;;
57071;SDS011;42956;51.366;11.298;2024-01-30T10:30:02;25.92;;;14.35;;
57071;SDS011;42956;51.366;11.298;2024-01-30T10:32:35;21.33;;;13.68;;
57071;SDS011;42956;51.366;11.298;2024-01-30T10:35:05;21.58;;;13.30;;
57071;SDS011;42956;51.366;11.298;2024-01-30T10:37:36;16.73;;;11.18;;
57071;SDS011;42956;51.366;11.298;2024-01-30T10:40:06;17.80;;;11.10;;
57071;SDS011;42956;51.366;11.298;2024-01-30T10:42:37;19.25;;;12.75;;
57071;SDS011;42956;51.366;11.298;2024-01-30T10:45:11;19.88;;;12.27;;
57071;SDS011;42956;51.366;11.298;2024-01-30T10:47:48;20.52;;;12.25;;
57071;SDS011;42956;51.366;11.298;2024-01-30T10:50:18;16.58;;;11.38;;
57071;SDS011;42956;51.366;11.298;2024-01-30T10:52:49;14.60;;;10.25;;
57071;SDS011;42956;51.366;11.298;2024-01-30T10:55:19;16.92;;;10.63;;
57071;SDS011;42956;51.366;11.298;2024-01-30T10:57:51;15.85;;;9.65;;
57071;SDS011;42956;51.366;11.298;2024-01-30T11:00:21;14.32;;;10.13;;
57071;SDS011;42956;51.366;11.298;2024-01-30T11:02:55;12.43;;;9.82;;
57071;SDS011;42956;51.366;11.298;2024-01-30T11:05:26;16.67;;;10.75;;
57071;SDS011;42956;51.366;11.298;2024-01-30T11:08:09;19.05;;;11.02;;
57071;SDS011;42956;51.366;11.298;2024-01-30T11:10:46;16.83;;;10.60;;
57071;SDS011;42956;51.366;11.298;2024-01-30T11:13:16;18.13;;;10.25;;
57071;SDS011;42956;51.366;11.298;2024-01-30T11:15:47;19.65;;;10.70;;
57071;SDS011;42956;51.366;11.298;2024-01-30T11:18:26;14.63;;;9.93;;
57071;SDS011;42956;51.366;11.298;2024-01-30T11:20:58;16.95;;;10.60;;
57071;SDS011;42956;51.366;11.298;2024-01-30T11:23:30;13.50;;;9.98;;
57071;SDS011;42956;51.366;11.298;2024-01-30T11:26:00;13.43;;;9.75;;
57071;SDS011;42956;51.366;11.298;2024-01-30T11:28:33;19.08;;;11.55;;
57071;SDS011;42956;51.366;11.298;2024-01-30T11:31:04;16.65;;;10.02;;
57071;SDS011;42956;51.366;11.298;2024-01-30T11:33:39;17.00;;;10.95;;
57071;SDS011;42956;51.366;11.298;2024-01-30T11:36:09;19.55;;;10.63;;
57071;SDS011;42956;51.366;11.298;2024-01-30T11:38:41;18.00;;;11.70;;
57071;SDS011;42956;51.366;11.298;2024-01-30T11:41:12;21.02;;;10.38;;
57071;SDS011;42956;51.366;11.298;2024-01-30T11:43:43;18.85;;;10.27;;
57071;SDS011;42956;51.366;11.298;2024-01-30T11:46:13;14.40;;;10.20;;
57071;SDS011;42956;51.366;11.298;2024-01-30T11:48:45;17.63;;;10.52;;
57071;SDS011;42956;51.366;11.298;2024-01-30T11:51:15;12.25;;;10.68;;
57071;SDS011;42956;51.366;11.298;2024-01-30T11:53:49;15.25;;;9.90;;
57071;SDS011;42956;51.366;11.298;2024-01-30T11:56:19;21.30;;;10.88;;
57071;SDS011;42956;51.366;11.298;2024-01-30T11:58:48;17.58;;;11.13;;
57071;SDS011;42956;51.366;11.298;2024-01-30T12:01:19;16.55;;;9.52;;
57071;SDS011;42956;51.366;11.298;2024-01-30T12:03:51;15.52;;;10.60;;
57071;SDS011;42956;51.366;11.298;2024-01-30T12:06:21;13.98;;;9.45;;
57071;SDS011;42956;51.366;11.298;2024-01-30T12:08:56;17.52;;;10.23;;
57071;SDS011;42956;51.366;11.298;2024-01-30T12:11:26;16.45;;;10.90;;
57071;SDS011;42956;51.366;11.298;2024-01-30T12:13:57;33.70;;;19.30;;
57071;SDS011;42956;51.366;11.298;2024-01-30T12:16:27;19.38;;;10.60;;
57071;SDS011;42956;51.366;11.298;2024-01-30T12:19:02;14.32;;;11.20;;
57071;SDS011;42956;51.366;11.298;2024-01-30T12:21:33;16.83;;;10.30;;
57071;SDS011;42956;51.366;11.298;2024-01-30T12:24:03;19.98;;;10.20;;
57071;SDS011;42956;51.366;11.298;2024-01-30T12:26:34;16.15;;;10.65;;
57071;SDS011;42956;51.366;11.298;2024-01-30T12:29:04;16.45;;;9.48;;
57071;SDS011;42956;51.366;11.298;2024-01-30T12:31:34;18.90;;;11.13;;
57071;SDS011;42956;51.366;11.298;2024-01-30T12:34:06;16.65;;;11.75;;
57071;SDS011;42956;51.366;11.298;2024-01-30T12:36:36;24.40;;;12.23;;
57071;SDS011;42956;51.366;11.298;2024-01-30T12:39:06;16.60;;;11.95;;
57071;SDS011;42956;51.366;11.298;2024-01-30T12:41:41;16.90;;;10.77;;
57071;SDS011;42956;51.366;11.298;2024-01-30T12:44:13;22.00;;;10.30;;
57071;SDS011;42956;51.366;11.298;2024-01-30T12:46:43;16.73;;;11.60;;
57071;SDS011;42956;51.366;11.298;2024-01-30T12:49:17;20.40;;;13.52;;
57071;SDS011;42956;51.366;11.298;2024-01-30T12:51:47;21.45;;;12.68;;
57071;SDS011;42956;51.366;11.298;2024-01-30T12:54:17;13.25;;;9.82;;
57071;SDS011;42956;51.366;11.298;2024-01-30T12:56:47;19.83;;;11.32;;
57071;SDS011;42956;51.366;11.298;2024-01-30T12:59:17;22.58;;;10.88;;
57071;SDS011;42956;51.366;11.298;2024-01-30T13:01:47;22.35;;;12.30;;
57071;SDS011;42956;51.366;11.298;2024-01-30T13:04:19;14.20;;;10.13;;
57071;SDS011;42956;51.366;11.298;2024-01-30T13:06:49;20.75;;;11.32;;
57071;SDS011;42956;51.366;11.298;2024-01-30T13:09:19;15.05;;;10.77;;
57071;SDS011;42956;51.366;11.298;2024-01-30T13:11:50;15.85;;;11.13;;
57071;SDS011;42956;51.366;11.298;2024-01-30T13:14:19;14.77;;;11.30;;
57071;SDS011;42956;51.366;11.298;2024-01-30T13:16:49;16.10;;;10.90;;
57071;SDS011;42956;51.366;11.298;2024-01-30T13:19:22;16.17;;;10.90;;
57071;SDS011;42956;51.366;11.298;2024-01-30T13:21:52;18.67;;;10.20;;
57071;SDS011;42956;51.366;11.298;2024-01-30T13:24:22;18.60;;;12.00;;
57071;SDS011;42956;51.366;11.298;2024-01-30T13:26:52;20.15;;;12.80;;
57071;SDS011;42956;51.366;11.298;2024-01-30T13:29:22;20.77;;;12.38;;
57071;SDS011;42956;51.366;11.298;2024-01-30T13:31:52;18.42;;;12.77;;
57071;SDS011;42956;51.366;11.298;2024-01-30T13:34:25;21.85;;;13.30;;
57071;SDS011;42956;51.366;11.298;2024-01-30T13:36:55;21.50;;;12.52;;
57071;SDS011;42956;51.366;11.298;2024-01-30T13:39:25;23.85;;;12.80;;
57071;SDS011;42956;51.366;11.298;2024-01-30T13:42:02;20.65;;;12.65;;
57071;SDS011;42956;51.366;11.298;2024-01-30T13:44:32;18.75;;;12.15;;
57071;SDS011;42956;51.366;11.298;2024-01-30T13:47:02;19.52;;;12.75;;
57071;SDS011;42956;51.366;11.298;2024-01-30T13:49:34;21.80;;;14.48;;
57071;SDS011;42956;51.366;11.298;2024-01-30T13:52:09;26.80;;;14.73;;
57071;SDS011;42956;51.366;11.298;2024-01-30T13:54:39;24.77;;;13.48;;
57071;SDS011;42956;51.366;11.298;2024-01-30T13:57:09;40.58;;;21.95;;
57071;SDS011;42956;51.366;11.298;2024-01-30T13:59:39;27.52;;;17.33;;
57071;SDS011;42956;51.366;11.298;2024-01-30T14:02:09;26.65;;;16.50;;
57071;SDS011;42956;51.366;11.298;2024-01-30T14:04:42;26.73;;;14.63;;
57071;SDS011;42956;51.366;11.298;2024-01-30T14:07:12;20.13;;;13.75;;
57071;SDS011;42956;51.366;11.298;2024-01-30T14:09:42;22.05;;;12.50;;
57071;SDS011;42956;51.366;11.298;2024-01-30T14:12:12;18.70;;;12.85;;
57071;SDS011;42956;51.366;11.298;2024-01-30T14:14:42;21.92;;;12.63;;
57071;SDS011;42956;51.366;11.298;2024-01-30T14:17:12;22.10;;;13.10;;
57071;SDS011;42956;51.366;11.298;2024-01-30T14:19:44;21.15;;;13.27;;
57071;SDS011;42956;51.366;11.298;2024-01-30T14:22:14;17.05;;;12.18;;
57071;SDS011;42956;51.366;11.298;2024-01-30T14:24:44;18.42;;;12.90;;
57071;SDS011;42956;51.366;11.298;2024-01-30T14:27:14;16.50;;;11.77;;
57071;SDS011;42956;51.366;11.298;2024-01-30T14:29:45;21.42;;;12.70;;
57071;SDS011;42956;51.366;11.298;2024-01-30T14:32:15;17.52;;;12.57;;
57071;SDS011;42956;51.366;11.298;2024-01-30T14:34:47;21.02;;;12.32;;
57071;SDS011;42956;51.366;11.298;2024-01-30T14:37:17;20.88;;;12.75;;
57071;SDS011;42956;51.366;11.298;2024-01-30T14:39:47;23.80;;;13.80;;
57071;SDS011;42956;51.366;11.298;2024-01-30T14:42:17;22.48;;;12.32;;
57071;SDS011;42956;51.366;11.298;2024-01-30T14:44:47;19.33;;;12.95;;
57071;SDS011;42956;51.366;11.298;2024-01-30T14:47:17;17.75;;;12.05;;